createdAt,value
2023-03-24T00:00:11.483Z,4.90
2023-03-24T00:02:41.604Z,5.67
2023-03-24T00:05:10.796Z,4.50
2023-03-24T00:07:39.764Z,5.60
2023-03-24T00:10:12.337Z,5.03
2023-03-24T00:12:39.717Z,5.43
2023-03-24T00:15:08.570Z,5.90
2023-03-24T00:17:36.912Z,5.03
2023-03-24T00:20:14.504Z,4.93
2023-03-24T00:22:42.674Z,5.43
2023-03-24T00:25:11.240Z,5.60
2023-03-24T00:27:38.975Z,5.47
2023-03-24T00:30:09.869Z,5.60
2023-03-24T00:32:38.730Z,5.70
2023-03-24T00:35:08.766Z,5.37
2023-03-24T00:37:37.609Z,5.13
2023-03-24T00:40:08.019Z,5.57
2023-03-24T00:42:36.833Z,6.00
2023-03-24T00:45:05.124Z,6.37
2023-03-24T00:47:36.878Z,6.37
2023-03-24T00:50:08.706Z,6.13
2023-03-24T00:52:36.233Z,6.53
2023-03-24T00:55:04.422Z,5.90
2023-03-24T00:57:34.756Z,5.93
2023-03-24T01:00:10.876Z,5.50
2023-03-24T01:02:38.306Z,5.50
2023-03-24T01:05:06.529Z,5.77
2023-03-24T01:07:34.088Z,6.30
2023-03-24T01:10:02.090Z,5.80
2023-03-24T01:12:30.608Z,5.33
2023-03-24T01:14:58.536Z,5.77
2023-03-24T01:17:25.991Z,6.17
2023-03-24T01:19:53.588Z,6.40
2023-03-24T01:22:21.003Z,6.03
2023-03-24T01:24:48.760Z,6.10
2023-03-24T01:27:16.309Z,7.00
2023-03-24T01:29:43.782Z,7.00
2023-03-24T01:32:11.134Z,5.93
2023-03-24T01:34:38.402Z,6.13
2023-03-24T01:37:05.643Z,6.93
2023-03-24T01:39:33.358Z,6.13
2023-03-24T01:42:00.540Z,6.47
2023-03-24T01:44:30.566Z,6.30
2023-03-24T01:46:58.204Z,6.97
2023-03-24T01:49:27.841Z,7.33
2023-03-24T01:51:56.898Z,6.40
2023-03-24T01:54:27.450Z,6.27
2023-03-24T01:56:58.241Z,6.93
2023-03-24T01:59:27.361Z,6.63
2023-03-24T02:02:02.764Z,7.30
2023-03-24T02:04:31.649Z,6.87
2023-03-24T02:07:00.178Z,5.93
2023-03-24T02:09:27.399Z,5.93
2023-03-24T02:11:54.846Z,6.80
2023-03-24T02:14:22.140Z,7.60
2023-03-24T02:16:52.116Z,6.87
2023-03-24T02:19:38.040Z,6.67
2023-03-24T02:22:20.708Z,7.00
2023-03-24T02:25:07.037Z,8.20
2023-03-24T02:27:52.552Z,6.73
2023-03-24T02:30:43.605Z,6.73
2023-03-24T02:33:31.190Z,5.80
2023-03-24T02:36:17.131Z,7.10
2023-03-24T02:38:50.414Z,5.90
2023-03-24T02:41:26.686Z,5.90
2023-03-24T02:44:02.042Z,5.73
2023-03-24T02:46:41.605Z,5.93
2023-03-24T02:49:27.510Z,6.27
2023-03-24T02:52:14.957Z,4.37
2023-03-24T02:54:49.395Z,5.07
2023-03-24T02:57:36.076Z,3.93
2023-03-24T03:00:14.364Z,5.53
2023-03-24T03:02:46.692Z,5.60
2023-03-24T03:05:27.043Z,5.70
2023-03-24T03:07:56.725Z,5.57
2023-03-24T03:10:38.572Z,5.17
2023-03-24T03:13:09.196Z,5.50
2023-03-24T03:15:38.591Z,5.40
2023-03-24T03:18:08.614Z,5.43
2023-03-24T03:20:38.930Z,4.57
2023-03-24T03:23:14.196Z,4.90
2023-03-24T03:25:46.488Z,5.87
2023-03-24T03:28:17.725Z,5.40
2023-03-24T03:30:47.209Z,4.77
2023-03-24T03:33:26.242Z,4.67
2023-03-24T03:35:56.640Z,5.20
2023-03-24T03:38:32.939Z,4.73
2023-03-24T03:41:00.933Z,5.30
2023-03-24T03:43:28.567Z,4.40
2023-03-24T03:45:56.143Z,5.03
2023-03-24T03:48:26.428Z,4.90
2023-03-24T03:51:03.085Z,4.77
2023-03-24T03:53:49.266Z,3.63
2023-03-24T03:56:20.951Z,4.97
2023-03-24T03:58:49.139Z,4.80
2023-03-24T04:01:20.676Z,4.97
2023-03-24T04:04:06.842Z,4.93
2023-03-24T04:06:53.860Z,5.23
2023-03-24T04:09:24.362Z,5.10
2023-03-24T04:12:06.882Z,5.13
2023-03-24T04:14:34.709Z,4.63
2023-03-24T04:17:05.020Z,4.70
2023-03-24T04:19:55.969Z,5.27
2023-03-24T04:22:24.029Z,5.67
2023-03-24T04:25:06.613Z,5.33
2023-03-24T04:27:56.959Z,4.70
2023-03-24T04:30:40.013Z,4.60
2023-03-24T04:33:17.929Z,4.93
2023-03-24T04:35:52.620Z,5.30
2023-03-24T04:38:25.832Z,4.80
2023-03-24T04:40:55.650Z,4.87
2023-03-24T04:43:25.015Z,4.80
2023-03-24T04:45:52.869Z,5.20
2023-03-24T04:48:20.906Z,4.47
2023-03-24T04:50:58.572Z,5.13
2023-03-24T04:53:26.147Z,5.10
2023-03-24T04:55:56.155Z,4.90
2023-03-24T04:58:23.719Z,5.50
2023-03-24T05:00:51.498Z,5.00
2023-03-24T05:03:19.249Z,4.90
2023-03-24T05:05:50.420Z,4.73
2023-03-24T05:08:17.971Z,4.93
2023-03-24T05:10:45.486Z,5.50
2023-03-24T05:13:13.206Z,5.13
2023-03-24T05:15:41.209Z,5.23
2023-03-24T05:18:08.870Z,5.43
2023-03-24T05:20:36.111Z,5.30
2023-03-24T05:23:03.292Z,5.60
2023-03-24T05:25:30.678Z,5.67
2023-03-24T05:27:57.959Z,5.50
2023-03-24T05:30:25.332Z,6.10
2023-03-24T05:32:52.581Z,6.17
2023-03-24T05:35:19.881Z,5.90
2023-03-24T05:37:47.017Z,6.23
2023-03-24T05:40:15.702Z,6.43
2023-03-24T05:42:43.116Z,7.40
2023-03-24T05:45:11.079Z,6.37
2023-03-24T05:47:38.408Z,7.23
2023-03-24T05:50:05.870Z,7.20
2023-03-24T05:52:33.154Z,8.00
2023-03-24T05:55:00.560Z,8.03
2023-03-24T05:57:30.507Z,8.97
2023-03-24T05:59:58.210Z,9.53
2023-03-24T06:02:25.766Z,10.43
2023-03-24T06:04:53.204Z,10.20
2023-03-24T06:07:20.516Z,10.90
2023-03-24T06:09:50.812Z,10.27
2023-03-24T06:12:18.207Z,10.90
2023-03-24T06:14:45.553Z,10.20
2023-03-24T06:17:15.735Z,9.87
2023-03-24T06:19:49.725Z,9.27
2023-03-24T06:22:20.370Z,9.93
2023-03-24T06:24:47.906Z,8.70
2023-03-24T06:27:15.577Z,8.93
2023-03-24T06:29:42.701Z,8.97
2023-03-24T06:32:10.750Z,8.93
2023-03-24T06:34:38.859Z,7.73
2023-03-24T06:37:06.163Z,7.43
2023-03-24T06:39:33.290Z,7.03
2023-03-24T06:42:00.509Z,6.73
2023-03-24T06:44:27.943Z,6.50
2023-03-24T06:46:55.158Z,6.27
2023-03-24T06:49:22.363Z,6.00
2023-03-24T06:51:49.728Z,5.60
2023-03-24T06:54:16.970Z,5.23
2023-03-24T06:56:44.519Z,5.90
2023-03-24T06:59:11.660Z,5.97
2023-03-24T07:01:39.633Z,6.00
2023-03-24T07:04:07.239Z,5.97
2023-03-24T07:06:40.169Z,6.10
2023-03-24T07:09:14.126Z,6.00
2023-03-24T07:11:41.477Z,5.80
2023-03-24T07:14:08.701Z,6.00
2023-03-24T07:16:35.917Z,5.87
2023-03-24T07:19:03.203Z,6.17
2023-03-24T07:21:30.356Z,6.17
2023-03-24T07:23:57.487Z,6.37
2023-03-24T07:26:24.631Z,6.80
2023-03-24T07:28:51.790Z,6.57
2023-03-24T07:31:18.984Z,6.40
2023-03-24T07:33:46.289Z,7.40
2023-03-24T07:36:13.502Z,6.37
2023-03-24T07:38:40.766Z,6.70
2023-03-24T07:41:07.906Z,6.93
2023-03-24T07:43:35.445Z,7.00
2023-03-24T07:46:02.707Z,7.00
2023-03-24T07:48:30.013Z,7.17
2023-03-24T07:50:57.165Z,6.70
2023-03-24T07:53:24.329Z,6.63
2023-03-24T07:55:51.680Z,5.90
2023-03-24T07:58:19.185Z,6.30
2023-03-24T08:00:46.327Z,5.17
2023-03-24T08:03:15.408Z,5.30
2023-03-24T08:05:43.520Z,4.50
2023-03-24T08:08:10.802Z,4.20
2023-03-24T08:10:38.081Z,3.80
2023-03-24T08:13:05.527Z,3.77
2023-03-24T08:15:32.755Z,3.77
2023-03-24T08:17:59.928Z,3.50
2023-03-24T08:20:29.485Z,3.50
2023-03-24T08:22:57.038Z,3.10
2023-03-24T08:25:25.842Z,2.90
2023-03-24T08:27:53.640Z,2.90
2023-03-24T08:30:22.026Z,2.47
2023-03-24T08:32:51.433Z,1.90
2023-03-24T08:35:19.866Z,1.60
2023-03-24T08:37:47.199Z,1.80
2023-03-24T08:40:19.044Z,1.70
2023-03-24T08:42:49.260Z,1.60
2023-03-24T08:45:16.670Z,1.43
2023-03-24T08:47:43.901Z,1.20
2023-03-24T08:50:11.308Z,1.30
2023-03-24T08:52:38.546Z,1.27
2023-03-24T08:55:05.889Z,1.23
2023-03-24T08:57:33.009Z,1.10
2023-03-24T09:00:00.217Z,1.10
2023-03-24T09:02:27.402Z,1.10
2023-03-24T09:04:55.882Z,1.10
2023-03-24T09:07:23.127Z,0.93
2023-03-24T09:09:50.428Z,1.20
2023-03-24T09:12:17.608Z,0.93
2023-03-24T09:14:48.967Z,0.90
2023-03-24T09:17:16.291Z,1.00
2023-03-24T09:19:43.746Z,1.20
2023-03-24T09:22:11.485Z,2.00
2023-03-24T09:24:38.732Z,2.40
2023-03-24T09:27:05.917Z,2.53
2023-03-24T09:29:33.057Z,2.80
2023-03-24T09:32:00.238Z,3.10
2023-03-24T09:34:27.411Z,3.00
2023-03-24T09:36:54.583Z,3.80
2023-03-24T09:39:21.724Z,3.70
2023-03-24T09:41:50.499Z,4.10
2023-03-24T09:44:23.772Z,3.53
2023-03-24T09:47:05.673Z,3.43
2023-03-24T09:49:36.402Z,2.40
2023-03-24T09:52:07.675Z,2.53
2023-03-24T09:54:53.353Z,2.30
2023-03-24T09:57:40.925Z,1.83
2023-03-24T10:00:28.042Z,1.80
2023-03-24T10:02:59.594Z,1.90
2023-03-24T10:05:38.448Z,2.10
2023-03-24T10:08:08.718Z,2.60
2023-03-24T10:10:56.259Z,2.90
2023-03-24T10:13:33.361Z,3.67
2023-03-24T10:16:22.577Z,4.13
2023-03-24T10:19:09.872Z,4.40
2023-03-24T10:21:40.195Z,4.63
2023-03-24T10:24:18.814Z,5.50
2023-03-24T10:27:04.797Z,5.60
2023-03-24T10:29:33.723Z,5.67
2023-03-24T10:32:00.913Z,5.87
2023-03-24T10:34:30.299Z,5.60
2023-03-24T10:37:02.211Z,6.43
2023-03-24T10:39:41.880Z,6.13
2023-03-24T10:42:15.594Z,6.87
2023-03-24T10:44:43.347Z,7.83
2023-03-24T10:47:12.571Z,8.23
2023-03-24T10:49:52.424Z,9.50
2023-03-24T10:52:19.867Z,8.73
2023-03-24T10:55:03.441Z,11.17
2023-03-24T10:57:31.112Z,9.10
2023-03-24T10:59:59.884Z,8.00
2023-03-24T11:02:31.612Z,8.10
2023-03-24T11:05:03.628Z,7.07
2023-03-24T11:07:34.857Z,6.50
2023-03-24T11:10:28.445Z,6.53
2023-03-24T11:12:55.591Z,6.90
2023-03-24T11:15:23.521Z,6.27
2023-03-24T11:17:56.528Z,5.80
2023-03-24T11:20:29.812Z,5.47
2023-03-24T11:23:05.032Z,5.17
2023-03-24T11:25:37.334Z,4.70
2023-03-24T11:28:09.008Z,4.60
2023-03-24T11:30:45.826Z,4.23
2023-03-24T11:33:39.654Z,4.27
2023-03-24T11:36:13.435Z,3.90
2023-03-24T11:38:40.616Z,3.43
2023-03-24T11:41:16.267Z,3.37
2023-03-24T11:43:43.571Z,3.60
2023-03-24T11:46:17.164Z,3.23
2023-03-24T11:48:49.849Z,2.97
2023-03-24T11:51:39.337Z,3.17
2023-03-24T11:54:09.745Z,3.07
2023-03-24T11:56:39.786Z,2.70
2023-03-24T11:59:09.945Z,3.03
2023-03-24T12:01:38.865Z,2.63
2023-03-24T12:04:06.103Z,2.93
2023-03-24T12:06:52.054Z,2.83
2023-03-24T12:09:25.757Z,2.00
2023-03-24T12:11:56.289Z,2.83
2023-03-24T12:14:37.792Z,2.60
2023-03-24T12:17:12.718Z,2.60
2023-03-24T12:19:47.563Z,2.80
2023-03-24T12:22:17.703Z,3.37
2023-03-24T12:25:04.100Z,2.50
2023-03-24T12:27:49.663Z,3.30
2023-03-24T12:30:26.458Z,2.87
2023-03-24T12:32:56.725Z,2.63
2023-03-24T12:35:29.968Z,2.73
2023-03-24T12:37:57.216Z,2.10
2023-03-24T12:40:39.768Z,2.10
2023-03-24T12:43:09.671Z,2.47
2023-03-24T12:45:43.419Z,2.40
2023-03-24T12:48:13.650Z,2.83
2023-03-24T12:51:19.022Z,3.90
2023-03-24T12:53:55.211Z,4.57
2023-03-24T12:56:27.357Z,2.80
2023-03-24T12:59:00.415Z,2.40
2023-03-24T13:01:29.800Z,2.40
2023-03-24T13:04:00.652Z,2.13
2023-03-24T13:06:32.317Z,1.90
2023-03-24T13:09:19.585Z,1.60
2023-03-24T13:11:55.861Z,1.20
2023-03-24T13:14:31.079Z,2.10
2023-03-24T13:17:03.610Z,1.67
2023-03-24T13:19:31.884Z,1.40
2023-03-24T13:21:59.441Z,1.63
2023-03-24T13:24:27.490Z,1.80
2023-03-24T13:26:58.918Z,1.63
2023-03-24T13:29:48.661Z,1.77
2023-03-24T13:32:23.558Z,1.33
2023-03-24T13:35:00.308Z,1.70
2023-03-24T13:37:30.986Z,1.40
2023-03-24T13:39:59.452Z,1.30
2023-03-24T13:42:32.784Z,1.47
2023-03-24T13:45:01.279Z,1.60
2023-03-24T13:47:31.727Z,1.30
2023-03-24T13:50:07.104Z,1.40
2023-03-24T13:52:37.090Z,1.30
2023-03-24T13:55:10.404Z,1.27
2023-03-24T13:57:41.251Z,1.00
2023-03-24T14:00:14.305Z,1.30
2023-03-24T14:02:49.721Z,1.70
2023-03-24T14:05:24.085Z,1.27
2023-03-24T14:07:51.847Z,1.47
2023-03-24T14:10:21.973Z,1.50
2023-03-24T14:13:15.952Z,1.50
2023-03-24T14:15:53.829Z,1.80
2023-03-24T14:18:24.106Z,1.70
2023-03-24T14:20:57.543Z,1.87
2023-03-24T14:23:24.946Z,2.00
2023-03-24T14:25:55.879Z,2.00
2023-03-24T14:28:26.535Z,2.20
2023-03-24T14:31:15.718Z,1.93
2023-03-24T14:34:05.626Z,2.27
2023-03-24T14:36:40.918Z,3.07
2023-03-24T14:39:27.140Z,2.63
2023-03-24T14:41:54.382Z,2.50
2023-03-24T14:44:39.967Z,2.40
2023-03-24T14:47:07.229Z,2.90
2023-03-24T14:49:34.684Z,2.73
2023-03-24T14:52:01.900Z,2.83
2023-03-24T14:54:39.895Z,2.90
2023-03-24T14:57:07.622Z,3.30
2023-03-24T14:59:37.764Z,3.57
2023-03-24T15:02:21.072Z,3.93
2023-03-24T15:05:07.495Z,3.03
2023-03-24T15:07:34.620Z,3.47
2023-03-24T15:10:01.738Z,3.70
2023-03-24T15:12:28.928Z,3.73
2023-03-24T15:14:56.074Z,3.80
2023-03-24T15:17:24.007Z,3.60
2023-03-24T15:19:55.318Z,3.90
2023-03-24T15:22:22.442Z,3.90
2023-03-24T15:24:51.196Z,3.27
2023-03-24T15:27:31.614Z,4.30
2023-03-24T15:30:00.339Z,3.67
2023-03-24T15:32:31.400Z,3.90
2023-03-24T15:35:00.400Z,3.80
2023-03-24T15:37:35.988Z,3.73
2023-03-24T15:42:41.903Z,4.17
2023-03-24T15:45:19.027Z,4.20
2023-03-24T15:47:46.211Z,3.93
2023-03-24T15:50:32.424Z,4.53
2023-03-24T15:53:00.634Z,3.77
2023-03-24T15:55:35.042Z,4.40
2023-03-24T15:58:04.259Z,3.93
2023-03-24T16:00:37.690Z,4.67
2023-03-24T16:03:06.793Z,4.57
2023-03-24T16:05:35.329Z,4.07
2023-03-24T16:08:04.260Z,4.33
2023-03-24T16:10:39.215Z,4.73
2023-03-24T16:13:13.251Z,4.33
2023-03-24T16:15:41.714Z,4.47
2023-03-24T16:18:12.876Z,3.93
2023-03-24T16:20:40.191Z,4.43
2023-03-24T16:23:09.004Z,4.03
2023-03-24T16:25:36.184Z,4.50
2023-03-24T16:28:04.324Z,4.70
2023-03-24T16:30:37.651Z,4.73
2023-03-24T16:33:05.336Z,4.07
2023-03-24T16:35:32.498Z,4.43
2023-03-24T16:37:59.664Z,4.17
2023-03-24T16:40:40.653Z,4.87
2023-03-24T16:43:07.866Z,4.53
2023-03-24T16:45:35.598Z,4.27
2023-03-24T16:48:02.877Z,5.50
2023-03-24T16:50:35.065Z,4.40
2023-03-24T16:53:03.908Z,4.93
2023-03-24T16:55:31.913Z,4.67
2023-03-24T16:57:59.137Z,4.20
2023-03-24T17:00:27.437Z,4.73
2023-03-24T17:02:54.761Z,4.67
2023-03-24T17:05:29.306Z,5.33
2023-03-24T17:07:56.826Z,4.47
2023-03-24T17:10:25.020Z,4.87
2023-03-24T17:12:53.350Z,4.47
2023-03-24T17:15:21.949Z,4.87
2023-03-24T17:17:49.217Z,4.93
2023-03-24T17:20:16.949Z,5.27
2023-03-24T17:22:45.097Z,5.67
2023-03-24T17:25:12.983Z,5.47
2023-03-24T17:27:40.270Z,4.93
2023-03-24T17:30:08.129Z,5.00
2023-03-24T17:32:35.523Z,5.20
2023-03-24T17:35:03.524Z,4.60
2023-03-24T17:37:31.428Z,5.60
2023-03-24T17:39:58.809Z,4.53
2023-03-24T17:42:28.292Z,5.67
2023-03-24T17:44:55.402Z,5.90
2023-03-24T17:47:22.545Z,5.33
2023-03-24T17:49:49.725Z,5.63
2023-03-24T17:52:16.884Z,4.13
2023-03-24T17:54:45.820Z,5.40
2023-03-24T17:57:13.115Z,4.30
2023-03-24T17:59:40.403Z,5.13
2023-03-24T18:02:07.860Z,5.23
2023-03-24T18:04:35.262Z,5.33
2023-03-24T18:07:02.771Z,5.00
2023-03-24T18:09:32.641Z,5.77
2023-03-24T18:11:59.863Z,6.20
2023-03-24T18:14:27.012Z,4.90
2023-03-24T18:16:54.186Z,5.83
2023-03-24T18:19:21.456Z,5.67
2023-03-24T18:21:48.644Z,5.57
2023-03-24T18:24:15.986Z,5.83
2023-03-24T18:26:43.140Z,5.30
2023-03-24T18:29:10.777Z,5.33
2023-03-24T18:31:38.117Z,6.80
2023-03-24T18:34:05.360Z,5.27
2023-03-24T18:36:32.593Z,6.20
2023-03-24T18:39:01.949Z,5.17
2023-03-24T18:41:30.322Z,5.73
2023-03-24T18:43:58.693Z,6.10
2023-03-24T18:46:27.209Z,5.93
2023-03-24T18:48:54.528Z,5.37
2023-03-24T18:51:22.183Z,4.87
2023-03-24T18:53:49.724Z,4.37
2023-03-24T18:56:17.076Z,6.20
2023-03-24T18:58:45.882Z,4.97
2023-03-24T19:01:15.281Z,5.57
2023-03-24T19:03:44.125Z,6.07
2023-03-24T19:06:12.975Z,6.00
2023-03-24T19:08:41.539Z,5.30
2023-03-24T19:11:09.432Z,5.13
2023-03-24T19:13:36.702Z,5.90
2023-03-24T19:16:04.740Z,4.97
2023-03-24T19:18:31.891Z,5.10
2023-03-24T19:20:59.382Z,5.33
2023-03-24T19:23:27.183Z,5.17
2023-03-24T19:25:55.060Z,5.57
2023-03-24T19:28:29.756Z,6.37
2023-03-24T19:31:00.969Z,6.57
2023-03-24T19:33:28.487Z,5.57
2023-03-24T19:35:55.796Z,5.00
2023-03-24T19:38:24.006Z,6.40
2023-03-24T19:40:54.143Z,5.63
2023-03-24T19:43:21.814Z,5.47
2023-03-24T19:45:49.824Z,5.30
2023-03-24T19:48:17.156Z,5.70
2023-03-24T19:50:45.164Z,5.37
2023-03-24T19:53:12.409Z,5.87
2023-03-24T19:55:39.580Z,5.13
2023-03-24T19:58:07.025Z,5.93
2023-03-24T20:00:34.913Z,6.10
2023-03-24T20:03:02.158Z,5.60
2023-03-24T20:05:29.634Z,6.10
2023-03-24T20:07:59.712Z,5.70
2023-03-24T20:10:27.652Z,5.03
2023-03-24T20:12:55.479Z,5.20
2023-03-24T20:15:22.843Z,5.37
2023-03-24T20:17:50.783Z,5.00
2023-03-24T20:20:18.063Z,5.50
2023-03-24T20:22:46.292Z,5.80
2023-03-24T20:25:14.786Z,4.67
2023-03-24T20:27:42.022Z,4.93
2023-03-24T20:30:09.399Z,5.17
2023-03-24T20:32:36.891Z,5.17
2023-03-24T20:35:05.620Z,4.97
2023-03-24T20:37:35.638Z,4.70
2023-03-24T20:40:05.167Z,4.60
2023-03-24T20:42:32.418Z,4.60
2023-03-24T20:45:00.039Z,4.77
2023-03-24T20:47:27.376Z,5.13
2023-03-24T20:49:54.529Z,5.57
2023-03-24T20:52:23.063Z,5.30
2023-03-24T20:54:50.642Z,4.33
2023-03-24T20:57:19.104Z,4.20
2023-03-24T20:59:48.392Z,4.87
2023-03-24T21:02:15.944Z,4.80
2023-03-24T21:04:43.536Z,5.27
2023-03-24T21:07:11.120Z,4.07
2023-03-24T21:09:38.417Z,4.73
2023-03-24T21:12:06.560Z,4.93
2023-03-24T21:14:34.108Z,5.40
2023-03-24T21:17:01.828Z,4.50
2023-03-24T21:19:29.169Z,5.20
2023-03-24T21:21:56.517Z,4.50
2023-03-24T21:24:24.296Z,4.50
2023-03-24T21:26:53.775Z,4.37
2023-03-24T21:29:22.584Z,4.60
2023-03-24T21:31:50.232Z,4.60
2023-03-24T21:34:17.511Z,4.70
2023-03-24T21:36:46.004Z,5.27
2023-03-24T21:39:13.188Z,5.00
2023-03-24T21:41:40.433Z,5.03
2023-03-24T21:44:09.442Z,5.20
2023-03-24T21:46:37.140Z,6.63
2023-03-24T21:49:05.098Z,6.27
2023-03-24T21:51:36.793Z,5.10
2023-03-24T21:54:06.692Z,5.27
2023-03-24T21:56:34.547Z,5.67
2023-03-24T21:59:02.300Z,4.90
2023-03-24T22:01:29.563Z,5.30
2023-03-24T22:03:58.789Z,5.13
2023-03-24T22:06:28.710Z,4.90
2023-03-24T22:08:58.388Z,5.40
2023-03-24T22:11:25.829Z,5.37
2023-03-24T22:13:53.084Z,5.67
2023-03-24T22:16:20.356Z,5.03
2023-03-24T22:18:47.577Z,6.03
2023-03-24T22:21:14.926Z,5.93
2023-03-24T22:23:42.841Z,5.40
2023-03-24T22:26:11.619Z,4.93
2023-03-24T22:28:39.116Z,6.30
2023-03-24T22:31:09.318Z,6.00
2023-03-24T22:33:36.603Z,6.23
2023-03-24T22:36:04.353Z,5.33
2023-03-24T22:38:32.277Z,4.70
2023-03-24T22:41:00.488Z,5.60
2023-03-24T22:43:28.101Z,5.43
2023-03-24T22:45:55.429Z,6.23
2023-03-24T22:48:22.967Z,5.80
2023-03-24T22:50:50.199Z,5.37
2023-03-24T22:53:17.528Z,5.40
2023-03-24T22:55:44.966Z,5.73
2023-03-24T22:58:13.339Z,6.97
2023-03-24T23:00:41.258Z,6.00
2023-03-24T23:03:08.658Z,5.83
2023-03-24T23:05:39.861Z,5.93
2023-03-24T23:08:07.214Z,5.60
2023-03-24T23:10:34.335Z,5.97
2023-03-24T23:13:01.440Z,5.53
2023-03-24T23:15:28.594Z,5.83
2023-03-24T23:17:57.187Z,6.57
2023-03-24T23:20:24.356Z,6.33
2023-03-24T23:22:51.861Z,6.07
2023-03-24T23:25:19.207Z,5.80
2023-03-24T23:27:46.767Z,6.83
2023-03-24T23:30:14.977Z,6.17
2023-03-24T23:32:43.892Z,5.63
2023-03-24T23:35:11.366Z,6.50
2023-03-24T23:37:39.483Z,5.90
2023-03-24T23:40:15.602Z,5.87
2023-03-24T23:42:44.421Z,5.53
2023-03-24T23:45:14.734Z,6.57
2023-03-24T23:47:43.121Z,6.47
2023-03-24T23:50:10.810Z,6.27
2023-03-24T23:52:38.034Z,6.23
2023-03-24T23:55:05.537Z,5.60
2023-03-24T23:57:33.074Z,6.37
